Terminal Aerodrome Forecast
Issued by NWS Grand Forks, ND

Home | Current Version | Previous Version | Graphics & Text | Print | Product List | Glossary On
Versions: 1 2 3 4 5 6 7 8 9 10 11 12 13 14 15 16
261
FTUS43 KFGF 270520
TAFGFK
TAF
KGFK 270520Z 2706/2806 06006KT P6SM BKN080
     FM271700 06016G24KT P6SM BKN200
     FM280100 05011KT P6SM BKN200=

USA.gov is the U.S. government's official web portal to all federal, state and local government web resources and services.